Time;durP1;ratioP1;P1;durP2;ratioP2;P2;SDS_P1;SDS_P2;PMS_P1;PMS_P2;Temp;Humidity;BMP_temperature;BMP_pressure;BME280_temperature;BME280_humidity;BME280_pressure;Samples;Min_cycle;Max_cycle;Signal;HPM_P1;HPM_P2
2023/09/06 00:00:30;;;;;;;3.25;1.70;;;18.70;99.90;;;;;;4879559;29;20041;-70
2023/09/06 00:02:57;;;;;;;3.60;1.55;;;18.80;99.90;;;;;;4864588;29;20071;-70
2023/09/06 00:05:23;;;;;;;4.40;1.30;;;18.80;99.90;;;;;;4862888;29;20033;-70
2023/09/06 00:07:49;;;;;;;2.78;1.13;;;18.60;99.90;;;;;;4862172;29;20029;-70
2023/09/06 00:10:15;;;;;;;4.90;1.50;;;18.50;99.90;;;;;;4862775;29;20113;-71
2023/09/06 00:12:42;;;;;;;2.92;1.48;;;18.60;99.90;;;;;;4863029;29;20029;-70
2023/09/06 00:15:09;;;;;;;3.42;1.38;;;18.60;99.90;;;;;;4879397;29;20033;-71
2023/09/06 00:17:38;;;;;;;5.68;1.50;;;18.60;99.90;;;;;;4863063;29;20064;-70
2023/09/06 00:20:21;;;;;;;2.92;1.42;;;18.70;99.90;;;;;;4878915;29;20478;-71
2023/09/06 00:22:58;;;;;;;4.68;1.38;;;18.60;99.90;;;;;;4879364;29;20099;-70
2023/09/06 00:25:26;;;;;;;3.90;1.70;;;18.30;99.90;;;;;;4862891;29;20025;-70
2023/09/06 00:27:53;;;;;;;6.20;1.70;;;18.40;99.90;;;;;;4862593;29;20075;-70
2023/09/06 00:30:19;;;;;;;3.22;1.45;;;18.40;99.90;;;;;;4878762;29;20033;-70
2023/09/06 00:32:47;;;;;;;5.70;2.00;;;18.20;99.90;;;;;;4879012;29;20131;-70
2023/09/06 00:35:16;;;;;;;2.38;1.27;;;18.20;99.90;;;;;;4862369;29;20033;-70
2023/09/06 00:37:45;;;;;;;1.50;1.00;;;18.30;99.90;;;;;;4862308;29;20060;-70
2023/09/06 00:40:18;;;;;;;4.22;1.77;;;17.90;99.90;;;;;;4861957;29;20088;-70
2023/09/06 00:43:01;;;;;;;2.65;1.20;;;17.80;99.90;;;;;;4863302;29;20494;-70
2023/09/06 00:45:48;;;;;;;3.03;1.10;;;17.90;99.90;;;;;;4878778;29;20040;-71
2023/09/06 00:48:29;;;;;;;2.17;1.10;;;17.90;99.90;;;;;;4862105;29;20478;-70
2023/09/06 00:50:56;;;;;;;;;;;17.80;99.90;;;;;;4862441;29;20037;-71
2023/09/06 00:53:25;;;;;;;10.15;1.45;;;17.90;99.90;;;;;;4862039;29;19912;-71
2023/09/06 00:55:51;;;;;;;3.53;1.70;;;17.80;99.90;;;;;;4862043;29;20652;-72
2023/09/06 00:58:20;;;;;;;3.20;1.70;;;17.80;99.90;;;;;;4861875;29;20044;-70
2023/09/06 01:00:48;;;;;;;5.68;2.15;;;17.80;99.90;;;;;;4861493;29;20052;-70
2023/09/06 01:03:15;;;;;;;2.88;1.40;;;17.70;99.90;;;;;;4878439;29;20043;-71
2023/09/06 01:05:56;;;;;;;3.00;1.45;;;17.80;99.90;;;;;;4856336;29;20033;-70
2023/09/06 01:08:55;;;;;;;2.83;1.60;;;17.80;99.90;;;;;;4860119;29;20025;-70
2023/09/06 01:11:24;;;;;;;4.43;1.70;;;17.90;99.90;;;;;;4857495;29;20060;-70
2023/09/06 01:14:00;;;;;;;2.80;1.30;;;18.10;99.90;;;;;;4878007;29;20020;-70
2023/09/06 01:16:32;;;;;;;3.08;1.20;;;18.10;99.90;;;;;;4878137;29;20036;-70
2023/09/06 01:18:59;;;;;;;2.85;1.40;;;18.30;99.90;;;;;;4878325;29;20115;-70
2023/09/06 01:21:38;;;;;;;3.20;1.73;;;18.40;99.90;;;;;;4860938;29;20033;-71
2023/09/06 01:24:05;;;;;;;2.80;1.27;;;18.40;99.90;;;;;;4861859;29;20120;-70
2023/09/06 01:26:33;;;;;;;2.13;1.30;;;18.40;99.90;;;;;;4877880;29;20079;-70
2023/09/06 01:28:59;;;;;;;2.38;1.13;;;18.50;99.90;;;;;;4853660;29;20401;-70
2023/09/06 01:31:24;;;;;;;3.35;1.60;;;18.40;99.90;;;;;;4868544;29;20042;-70
2023/09/06 01:33:51;;;;;;;4.25;1.80;;;18.30;99.90;;;;;;4845976;29;20127;-70
2023/09/06 01:36:17;;;;;;;5.53;1.63;;;18.00;99.90;;;;;;4878038;29;20096;-70
2023/09/06 01:38:42;;;;;;;2.60;1.30;;;18.00;99.90;;;;;;4861232;29;20033;-70
2023/09/06 01:41:11;;;;;;;6.10;1.88;;;18.00;99.90;;;;;;4877685;29;20037;-70
2023/09/06 01:43:38;;;;;;;2.92;1.45;;;17.80;99.90;;;;;;4861262;29;20045;-70
2023/09/06 01:46:03;;;;;;;5.80;1.88;;;17.80;99.90;;;;;;4861163;29;20064;-70
2023/09/06 01:48:29;;;;;;;4.97;1.73;;;17.90;99.90;;;;;;4877676;29;20481;-70
2023/09/06 01:50:55;;;;;;;8.57;1.85;;;17.90;99.90;;;;;;4861774;29;20466;-70
2023/09/06 01:53:22;;;;;;;5.68;1.67;;;17.90;99.90;;;;;;4877866;29;20025;-70
2023/09/06 01:55:49;;;;;;;3.03;1.52;;;17.90;99.90;;;;;;4861151;29;20534;-70
2023/09/06 01:58:15;;;;;;;4.10;1.80;;;18.00;99.90;;;;;;4867888;29;20025;-69
2023/09/06 02:00:40;;;;;;;3.20;1.45;;;18.10;99.90;;;;;;4878417;29;20041;-69
2023/09/06 02:03:11;;;;;;;4.70;1.67;;;18.10;99.90;;;;;;4860976;29;20052;-70
2023/09/06 02:05:36;;;;;;;13.05;1.80;;;18.20;99.90;;;;;;4877710;29;20045;-69
2023/09/06 02:08:05;;;;;;;8.10;1.95;;;18.30;99.90;;;;;;4877620;29;20092;-69
2023/09/06 02:10:31;;;;;;;3.17;1.40;;;18.30;99.90;;;;;;4861001;29;20041;-70
2023/09/06 02:12:57;;;;;;;4.57;1.63;;;18.30;99.90;;;;;;4865267;29;20393;-70
2023/09/06 02:15:23;;;;;;;5.22;1.38;;;18.30;99.90;;;;;;4881129;29;20172;-69
2023/09/06 02:17:48;;;;;;;2.85;1.42;;;18.30;99.90;;;;;;4877330;29;20442;-69
2023/09/06 02:20:17;;;;;;;4.72;1.70;;;18.10;99.90;;;;;;4877227;29;20044;-70
2023/09/06 02:22:57;;;;;;;3.47;1.67;;;18.10;99.90;;;;;;4877564;29;20112;-70
2023/09/06 02:25:29;;;;;;;3.30;1.73;;;18.10;99.90;;;;;;4877540;29;20029;-69
2023/09/06 02:27:56;;;;;;;5.15;1.83;;;18.00;99.90;;;;;;4861575;29;20049;-70
2023/09/06 02:30:22;;;;;;;3.08;1.48;;;18.10;99.90;;;;;;4878979;29;20036;-70
2023/09/06 02:32:51;;;;;;;7.88;2.13;;;18.00;99.90;;;;;;4863944;29;20401;-70
2023/09/06 02:35:17;;;;;;;3.95;2.00;;;18.10;99.90;;;;;;4864327;29;20036;-70
2023/09/06 02:37:43;;;;;;;4.47;1.90;;;18.10;99.90;;;;;;4864110;29;20719;-70
2023/09/06 02:40:13;;;;;;;2.63;1.33;;;17.90;99.90;;;;;;4880556;29;20033;-70
2023/09/06 02:42:44;;;;;;;5.17;1.67;;;17.50;99.90;;;;;;4888348;29;20393;-70
2023/09/06 02:45:11;;;;;;;4.15;1.77;;;17.40;99.90;;;;;;4848956;29;20631;-70
2023/09/06 02:47:48;;;;;;;1.90;1.13;;;17.50;99.90;;;;;;4863836;29;20025;-70
2023/09/06 02:50:16;;;;;;;2.97;1.55;;;17.50;99.90;;;;;;4864007;29;20443;-70
2023/09/06 02:52:45;;;;;;;3.97;1.40;;;17.40;99.90;;;;;;4863768;29;20148;-70
2023/09/06 02:55:14;;;;;;;5.38;2.05;;;17.40;99.90;;;;;;4878980;29;20052;-70
2023/09/06 02:57:44;;;;;;;6.68;2.53;;;17.50;99.90;;;;;;4880278;29;20035;-70
2023/09/06 03:00:24;;;;;;;3.83;1.80;;;17.60;99.90;;;;;;4870995;29;20089;-70
2023/09/06 03:02:54;;;;;;;3.15;1.52;;;17.40;99.90;;;;;;4872922;29;20045;-69
2023/09/06 03:05:20;;;;;;;4.63;1.65;;;17.50;99.90;;;;;;4863649;29;20063;-70
2023/09/06 03:07:53;;;;;;;5.53;1.88;;;17.50;99.90;;;;;;4880127;29;20424;-70
2023/09/06 03:10:20;;;;;;;4.78;2.00;;;17.50;99.90;;;;;;4879921;29;20513;-70
2023/09/06 03:12:47;;;;;;;7.68;2.25;;;17.50;99.90;;;;;;4880008;29;20056;-70
2023/09/06 03:15:15;;;;;;;3.60;2.05;;;17.40;99.90;;;;;;4847801;29;20746;-70
2023/09/06 03:17:41;;;;;;;3.97;1.75;;;17.30;99.90;;;;;;4863014;29;20033;-69
2023/09/06 03:22:52;;;;;;;4.13;1.80;;;17.00;99.90;;;;;;4865711;29;20036;-71
2023/09/06 03:25:18;;;;;;;4.93;2.33;;;17.00;99.90;;;;;;4863156;29;20033;-70
2023/09/06 03:27:44;;;;;;;6.72;1.60;;;16.90;99.90;;;;;;4863139;29;20525;-70
2023/09/06 03:30:15;;;;;;;4.32;1.67;;;16.90;99.90;;;;;;4879205;29;20104;-70
2023/09/06 03:32:42;;;;;;;2.95;1.67;;;16.90;99.90;;;;;;4863134;29;20028;-70
2023/09/06 03:35:08;;;;;;;5.78;1.73;;;16.90;99.90;;;;;;4865525;29;20029;-70
2023/09/06 03:37:34;;;;;;;3.42;1.80;;;17.00;99.90;;;;;;4879762;29;20029;-70
2023/09/06 03:40:00;;;;;;;3.10;1.60;;;17.00;99.90;;;;;;4879577;29;20076;-70
2023/09/06 03:42:26;;;;;;;5.20;1.70;;;17.10;99.90;;;;;;4878522;29;20029;-70
2023/09/06 03:44:52;;;;;;;5.15;1.90;;;17.20;99.90;;;;;;4879619;29;20034;-70
2023/09/06 03:47:19;;;;;;;5.75;1.90;;;17.30;99.90;;;;;;4879516;29;20025;-71
2023/09/06 03:49:45;;;;;;;3.63;1.90;;;17.50;99.90;;;;;;4862431;29;20413;-71
2023/09/06 03:52:11;;;;;;;3.35;1.75;;;17.50;99.90;;;;;;4879457;29;20454;-72
2023/09/06 03:54:37;;;;;;;2.95;1.52;;;17.60;99.90;;;;;;4862278;29;20036;-71
2023/09/06 03:57:04;;;;;;;4.95;1.95;;;17.60;99.90;;;;;;4862602;29;20382;-70
2023/09/06 03:59:37;;;;;;;3.10;1.50;;;17.60;99.90;;;;;;4879693;29;20093;-71
2023/09/06 04:02:07;;;;;;;10.13;2.50;;;17.50;99.90;;;;;;4885159;29;20499;-71
2023/09/06 04:04:34;;;;;;;3.70;1.58;;;17.10;99.90;;;;;;4878958;29;20514;-70
2023/09/06 04:07:01;;;;;;;3.45;1.83;;;16.30;99.90;;;;;;4862669;29;20025;-71
2023/09/06 04:09:37;;;;;;;7.32;2.20;;;15.90;99.90;;;;;;4879219;29;20096;-70
2023/09/06 04:12:05;;;;;;;3.65;1.50;;;16.00;99.90;;;;;;4879091;29;20029;-71
2023/09/06 04:14:35;;;;;;;3.75;1.65;;;16.00;99.90;;;;;;4862541;29;20029;-70
2023/09/06 04:17:02;;;;;;;3.58;1.92;;;16.00;99.90;;;;;;4862158;29;20029;-70
2023/09/06 04:19:27;;;;;;;3.38;1.70;;;16.10;99.90;;;;;;4861913;29;20025;-70
2023/09/06 04:21:53;;;;;;;6.80;3.15;;;16.10;99.90;;;;;;4878896;29;20044;-70
2023/09/06 04:24:20;;;;;;;4.63;2.10;;;16.20;99.90;;;;;;4878840;29;20035;-71
2023/09/06 04:26:46;;;;;;;4.25;1.80;;;16.30;99.90;;;;;;4878751;29;20676;-71
2023/09/06 04:29:11;;;;;;;3.47;1.73;;;16.40;99.90;;;;;;4861947;29;20156;-71
2023/09/06 04:31:41;;;;;;;5.30;1.98;;;16.50;99.90;;;;;;4878077;29;20037;-71
2023/09/06 04:34:07;;;;;;;4.35;2.13;;;16.50;99.90;;;;;;4883723;29;20028;-71
2023/09/06 04:36:36;;;;;;;4.32;1.95;;;16.50;99.90;;;;;;4880901;29;20059;-71
2023/09/06 04:39:03;;;;;;;5.68;2.67;;;16.50;99.90;;;;;;4862160;29;20025;-71
2023/09/06 04:41:31;;;;;;;7.55;2.03;;;16.50;99.90;;;;;;4878277;29;20033;-71
2023/09/06 04:43:57;;;;;;;5.65;2.50;;;16.50;99.90;;;;;;4878630;29;20033;-69
2023/09/06 04:46:22;;;;;;;12.50;2.00;;;16.50;99.90;;;;;;4861817;29;20033;-69
2023/09/06 04:48:48;;;;;;;5.35;1.80;;;16.60;99.90;;;;;;4878609;29;20506;-70
2023/09/06 04:51:14;;;;;;;4.43;1.73;;;16.60;99.90;;;;;;4878117;29;20075;-70
2023/09/06 04:53:41;;;;;;;5.05;1.73;;;16.60;99.90;;;;;;4877916;29;20505;-70
2023/09/06 04:56:06;;;;;;;3.92;1.90;;;16.50;99.90;;;;;;4878285;29;20029;-70
2023/09/06 04:58:33;;;;;;;3.58;1.70;;;16.50;99.90;;;;;;4861739;29;20032;-70
2023/09/06 05:01:06;;;;;;;3.45;1.60;;;16.50;99.90;;;;;;4877985;29;20028;-70
2023/09/06 05:03:33;;;;;;;3.75;1.90;;;16.50;99.90;;;;;;4878265;29;20059;-70
2023/09/06 05:06:00;;;;;;;7.15;1.77;;;16.40;99.90;;;;;;4878343;29;20111;-70
2023/09/06 05:08:25;;;;;;;6.03;1.92;;;16.40;99.90;;;;;;4878140;29;20027;-70
2023/09/06 05:10:51;;;;;;;3.75;1.70;;;16.40;99.90;;;;;;4877761;29;20033;-71
2023/09/06 05:13:18;;;;;;;4.05;1.88;;;16.40;99.90;;;;;;4878410;29;20144;-70
2023/09/06 05:15:44;;;;;;;4.13;1.90;;;16.40;99.90;;;;;;4877780;29;20504;-71
2023/09/06 05:18:10;;;;;;;8.77;2.30;;;16.40;99.90;;;;;;4861866;29;20049;-71
2023/09/06 05:20:38;;;;;;;5.28;2.17;;;16.40;99.90;;;;;;4877879;29;20057;-71
2023/09/06 05:23:06;;;;;;;5.47;2.30;;;16.30;99.90;;;;;;4877080;29;20402;-71
2023/09/06 05:25:32;;;;;;;3.80;1.80;;;16.30;99.90;;;;;;4876923;29;20473;-71
2023/09/06 05:28:01;;;;;;;4.07;2.00;;;16.20;99.90;;;;;;4863451;29;20093;-71
2023/09/06 05:30:27;;;;;;;4.18;2.20;;;16.20;99.90;;;;;;4864057;29;20043;-72
2023/09/06 05:32:57;;;;;;;9.18;2.25;;;16.20;99.90;;;;;;4846387;29;20493;-71
2023/09/06 05:35:24;;;;;;;3.50;2.05;;;16.10;99.90;;;;;;4878249;29;20029;-71
2023/09/06 05:37:50;;;;;;;6.20;2.08;;;16.10;99.90;;;;;;4846307;29;20029;-71
2023/09/06 05:40:22;;;;;;;4.63;2.15;;;16.10;99.90;;;;;;4861061;29;20025;-71
2023/09/06 05:42:51;;;;;;;3.40;1.90;;;16.10;99.90;;;;;;4861678;29;20032;-70
2023/09/06 05:45:19;;;;;;;4.63;2.63;;;16.00;99.90;;;;;;4861036;29;20089;-70
2023/09/06 05:47:45;;;;;;;3.42;2.15;;;16.00;99.90;;;;;;4861026;29;20029;-70
2023/09/06 05:50:11;;;;;;;5.15;1.70;;;16.00;99.90;;;;;;4860051;29;20032;-71
2023/09/06 05:52:38;;;;;;;6.10;2.33;;;16.10;99.90;;;;;;4877641;29;20551;-71
2023/09/06 05:55:04;;;;;;;3.58;1.90;;;16.10;99.90;;;;;;4877859;29;20490;-70
2023/09/06 05:57:34;;;;;;;6.93;2.55;;;16.20;99.90;;;;;;4861339;29;20120;-70
2023/09/06 06:00:01;;;;;;;5.63;2.00;;;16.30;99.90;;;;;;4861488;29;20033;-71
2023/09/06 06:02:31;;;;;;;3.53;1.85;;;16.50;99.90;;;;;;4877803;29;20056;-70
2023/09/06 06:04:57;;;;;;;4.00;2.08;;;16.40;99.90;;;;;;4879252;29;20045;-71
2023/09/06 06:07:23;;;;;;;6.22;2.13;;;16.60;99.90;;;;;;4881325;29;20104;-70
2023/09/06 06:09:49;;;;;;;3.42;1.90;;;16.70;99.90;;;;;;4880952;29;20497;-71
2023/09/06 06:12:15;;;;;;;5.35;2.22;;;16.80;99.90;;;;;;4864463;29;20040;-70
2023/09/06 06:14:41;;;;;;;3.22;1.75;;;16.90;99.90;;;;;;4864566;29;20040;-70
2023/09/06 06:17:09;;;;;;;4.10;2.10;;;17.00;99.90;;;;;;4864580;29;20036;-70
2023/09/06 06:19:35;;;;;;;3.63;1.80;;;17.00;99.90;;;;;;4864394;29;20036;-70
2023/09/06 06:22:04;;;;;;;4.45;1.77;;;17.10;99.90;;;;;;4864512;29;20040;-70
2023/09/06 06:24:33;;;;;;;5.32;1.98;;;17.20;99.90;;;;;;4864836;29;20124;-70
2023/09/06 06:26:59;;;;;;;6.07;3.40;;;17.20;99.90;;;;;;4881352;29;20033;-70
2023/09/06 06:29:25;;;;;;;6.57;2.05;;;17.30;99.90;;;;;;4881291;29;20044;-70
2023/09/06 06:31:52;;;;;;;4.55;1.63;;;17.50;99.90;;;;;;4879636;29;20044;-71
2023/09/06 06:34:18;;;;;;;3.95;1.75;;;17.60;99.90;;;;;;4864474;29;20025;-71
2023/09/06 06:36:46;;;;;;;3.90;1.55;;;17.70;99.90;;;;;;4864246;29;20044;-71
2023/09/06 06:39:12;;;;;;;3.63;1.70;;;17.70;99.90;;;;;;4864107;29;20518;-71
2023/09/06 06:41:38;;;;;;;4.63;1.90;;;17.80;99.90;;;;;;4863978;29;20093;-70
2023/09/06 06:44:05;;;;;;;3.58;1.40;;;17.90;99.90;;;;;;4864262;29;20036;-70
2023/09/06 06:46:34;;;;;;;2.58;1.45;;;18.00;99.90;;;;;;4864238;29;20082;-70
2023/09/06 06:49:01;;;;;;;5.35;1.85;;;18.10;99.90;;;;;;4864351;29;20553;-70
2023/09/06 06:51:38;;;;;;;5.07;1.83;;;18.20;99.90;;;;;;4879539;29;20088;-70
2023/09/06 06:54:09;;;;;;;3.35;1.50;;;18.20;99.90;;;;;;4865743;29;20044;-70
2023/09/06 06:56:37;;;;;;;1.92;1.40;;;18.30;99.90;;;;;;4864278;29;20040;-71
2023/09/06 06:59:03;;;;;;;4.60;1.55;;;18.40;99.90;;;;;;4863932;29;20040;-71
2023/09/06 07:01:30;;;;;;;3.00;1.80;;;18.50;99.90;;;;;;4863675;29;20044;-71
2023/09/06 07:03:57;;;;;;;5.05;2.13;;;18.60;99.90;;;;;;4864081;29;20041;-70
2023/09/06 07:06:24;;;;;;;4.78;1.98;;;18.60;99.90;;;;;;4863700;29;20064;-70
2023/09/06 07:08:51;;;;;;;6.50;1.98;;;18.70;99.90;;;;;;4863690;29;20043;-70
2023/09/06 07:11:18;;;;;;;3.60;1.85;;;18.80;99.90;;;;;;4863262;29;20486;-70
2023/09/06 07:13:47;;;;;;;3.42;1.83;;;18.90;99.90;;;;;;4863453;29;20063;-70
2023/09/06 07:16:16;;;;;;;6.55;1.77;;;18.90;99.90;;;;;;4863531;29;20033;-70
2023/09/06 07:18:42;;;;;;;5.97;1.77;;;18.90;99.90;;;;;;4880440;29;20033;-70
2023/09/06 07:21:08;;;;;;;5.30;1.73;;;19.00;99.90;;;;;;4863407;29;20043;-70
2023/09/06 07:23:33;;;;;;;3.03;1.50;;;19.10;99.90;;;;;;4863516;29;20041;-69
2023/09/06 07:25:59;;;;;;;6.70;1.88;;;19.20;99.90;;;;;;4863269;29;20128;-70
2023/09/06 07:28:25;;;;;;;3.45;1.50;;;19.20;99.90;;;;;;4880324;29;20040;-71
2023/09/06 07:30:51;;;;;;;3.85;1.70;;;19.30;99.90;;;;;;4879497;29;20705;-71
2023/09/06 07:33:16;;;;;;;5.18;2.00;;;19.40;99.90;;;;;;4880136;29;20033;-71
2023/09/06 07:35:42;;;;;;;2.28;1.00;;;19.50;99.90;;;;;;4862944;29;20120;-70
2023/09/06 07:38:09;;;;;;;4.07;2.03;;;19.60;99.90;;;;;;4863157;29;20741;-70
2023/09/06 07:40:35;;;;;;;4.82;1.48;;;19.80;99.90;;;;;;4862821;29;20065;-70
2023/09/06 07:43:00;;;;;;;5.25;1.60;;;19.80;99.90;;;;;;4879672;29;20367;-70
2023/09/06 07:45:26;;;;;;;5.53;1.67;;;19.90;99.90;;;;;;4879778;29;20040;-70
2023/09/06 07:47:53;;;;;;;4.32;1.70;;;20.00;99.90;;;;;;4879635;29;20434;-70
2023/09/06 07:50:18;;;;;;;3.88;1.60;;;20.10;99.90;;;;;;4879458;29;20041;-70
2023/09/06 07:52:45;;;;;;;4.45;2.28;;;20.20;99.90;;;;;;4879756;29;20036;-70
2023/09/06 07:55:12;;;;;;;4.97;1.80;;;20.30;99.90;;;;;;4862766;29;20021;-70
2023/09/06 07:57:38;;;;;;;3.20;1.27;;;20.40;99.90;;;;;;4879454;29;20355;-70
2023/09/06 08:00:06;;;;;;;3.58;1.50;;;20.50;99.90;;;;;;4862317;29;20040;-71
2023/09/06 08:02:31;;;;;;;3.97;2.38;;;20.60;99.90;;;;;;4862903;29;20051;-70
2023/09/06 08:04:57;;;;;;;3.63;1.50;;;20.70;99.90;;;;;;4879392;29;20029;-70
2023/09/06 08:07:24;;;;;;;3.47;1.85;;;20.80;99.90;;;;;;4879338;29;20041;-70
2023/09/06 08:09:49;;;;;;;4.00;1.83;;;20.80;99.90;;;;;;4879146;29;20496;-70
2023/09/06 08:12:15;;;;;;;3.88;1.88;;;20.90;99.90;;;;;;4862544;29;20044;-71
2023/09/06 08:14:42;;;;;;;5.90;2.00;;;21.00;99.90;;;;;;4879312;29;20021;-70
2023/09/06 08:17:08;;;;;;;4.82;2.00;;;21.10;99.90;;;;;;4879079;29;20367;-70
2023/09/06 08:19:34;;;;;;;2.33;1.23;;;21.30;99.90;;;;;;4879034;29;20040;-70
2023/09/06 08:22:00;;;;;;;3.78;1.77;;;21.40;99.90;;;;;;4862121;29;20037;-71
2023/09/06 08:24:25;;;;;;;2.40;1.20;;;21.50;99.90;;;;;;4862291;29;20127;-71
2023/09/06 08:26:51;;;;;;;4.47;1.67;;;21.60;99.90;;;;;;4877139;29;20072;-71
2023/09/06 08:29:17;;;;;;;3.80;1.60;;;21.70;99.90;;;;;;4878771;29;20073;-70
2023/09/06 08:31:43;;;;;;;4.57;1.90;;;21.80;99.90;;;;;;4878344;29;20045;-70
2023/09/06 08:34:10;;;;;;;3.28;1.75;;;22.00;99.90;;;;;;4879008;29;20600;-70
2023/09/06 08:36:36;;;;;;;4.72;2.05;;;22.10;99.90;;;;;;4878648;29;20033;-70
2023/09/06 08:39:02;;;;;;;2.92;1.45;;;22.20;99.90;;;;;;4878848;29;20446;-70
2023/09/06 08:41:30;;;;;;;3.65;1.92;;;22.30;99.90;;;;;;4861780;29;20120;-70
2023/09/06 08:43:57;;;;;;;5.35;1.95;;;22.40;99.90;;;;;;4862402;29;20061;-70
2023/09/06 08:46:30;;;;;;;3.30;1.63;;;22.60;99.90;;;;;;4878777;29;20746;-71
2023/09/06 08:48:58;;;;;;;5.82;1.63;;;22.70;99.90;;;;;;4862067;29;20033;-71
2023/09/06 08:51:25;;;;;;;9.05;1.67;;;22.80;99.90;;;;;;4861430;29;20040;-71
2023/09/06 08:53:52;;;;;;;3.60;1.80;;;22.90;99.90;;;;;;4861807;29;20060;-71
2023/09/06 08:56:19;;;;;;;7.38;1.80;;;22.90;99.90;;;;;;4861986;29;20048;-70
2023/09/06 08:58:44;;;;;;;5.20;1.48;;;23.10;99.90;;;;;;4861915;29;20470;-71
2023/09/06 09:01:10;;;;;;;2.95;1.52;;;23.20;99.90;;;;;;4878267;29;20037;-70
2023/09/06 09:03:36;;;;;;;2.78;1.73;;;23.30;99.90;;;;;;4878471;29;20127;-70
2023/09/06 09:06:08;;;;;;;2.78;1.75;;;23.30;99.90;;;;;;4878614;29;20036;-70
2023/09/06 09:08:35;;;;;;;2.65;1.45;;;23.40;99.90;;;;;;4878627;29;20393;-71
2023/09/06 09:11:10;;;;;;;3.97;2.45;;;23.60;99.90;;;;;;4877920;29;20033;-70
2023/09/06 09:13:36;;;;;;;3.55;1.58;;;23.70;99.70;;;;;;4861799;29;20044;-70
2023/09/06 09:16:09;;;;;;;4.35;1.90;;;23.80;99.90;;;;;;4878107;29;20392;-70
2023/09/06 09:18:38;;;;;;;4.45;1.50;;;23.80;99.50;;;;;;4878106;29;20120;-70
2023/09/06 09:21:07;;;;;;;4.57;1.45;;;23.80;99.40;;;;;;4861178;29;20032;-70
2023/09/06 09:23:40;;;;;;;6.35;1.83;;;23.90;99.90;;;;;;4877939;29;20029;-71
2023/09/06 09:26:08;;;;;;;4.68;1.95;;;24.10;99.90;;;;;;4862617;29;20059;-70
2023/09/06 09:28:35;;;;;;;2.45;1.58;;;24.30;99.90;;;;;;4878056;29;20037;-69
2023/09/06 09:31:02;;;;;;;6.00;1.83;;;24.50;98.50;;;;;;4860611;29;20089;-69
2023/09/06 09:33:29;;;;;;;4.55;2.05;;;24.50;98.30;;;;;;4861203;29;20033;-70
2023/09/06 09:35:56;;;;;;;2.85;1.55;;;24.70;98.40;;;;;;4861052;29;20029;-70
2023/09/06 09:38:22;;;;;;;2.30;1.40;;;24.90;97.70;;;;;;4861069;29;20029;-70
2023/09/06 09:41:08;;;;;;;3.33;1.38;;;25.00;97.70;;;;;;4876635;29;20032;-70
2023/09/06 09:43:35;;;;;;;3.28;1.20;;;25.00;96.40;;;;;;4861369;29;20484;-70
2023/09/06 09:46:02;;;;;;;2.20;1.27;;;25.00;96.30;;;;;;4877770;29;20115;-70
2023/09/06 09:48:31;;;;;;;3.28;1.42;;;25.20;97.10;;;;;;4861119;29;20029;-70
2023/09/06 09:51:04;;;;;;;3.20;1.40;;;25.40;96.20;;;;;;4860640;29;20115;-70
2023/09/06 09:53:32;;;;;;;2.95;1.60;;;25.30;95.80;;;;;;4877762;29;20024;-70
2023/09/06 09:56:06;;;;;;;1.98;1.02;;;25.50;96.10;;;;;;4861079;29;20040;-70
2023/09/06 09:58:35;;;;;;;3.03;1.65;;;25.50;97.20;;;;;;4861773;29;20061;-70
2023/09/06 10:01:05;;;;;;;3.37;1.97;;;25.70;95.60;;;;;;4861109;29;20044;-70
2023/09/06 10:03:36;;;;;;;2.63;1.48;;;25.90;96.40;;;;;;4861402;29;20037;-70
2023/09/06 10:06:05;;;;;;;2.47;1.20;;;26.10;96.10;;;;;;4861343;29;20047;-70
2023/09/06 10:08:35;;;;;;;3.07;1.50;;;26.30;95.20;;;;;;4861372;29;20049;-70
2023/09/06 10:11:05;;;;;;;2.88;1.80;;;26.10;94.90;;;;;;4860609;29;20300;-70
2023/09/06 10:13:32;;;;;;;3.03;1.50;;;26.30;94.60;;;;;;4861402;29;20056;-70
2023/09/06 10:15:59;;;;;;;3.28;1.55;;;26.50;94.50;;;;;;4877312;29;20065;-70
2023/09/06 10:18:25;;;;;;;4.18;1.60;;;26.60;94.10;;;;;;4877459;29;20029;-70
2023/09/06 10:20:51;;;;;;;3.25;1.27;;;26.40;94.00;;;;;;4877104;29;20081;-70
2023/09/06 10:23:17;;;;;;;2.95;1.65;;;26.40;94.60;;;;;;4860833;29;20033;-70
2023/09/06 10:25:51;;;;;;;2.65;1.30;;;26.70;94.00;;;;;;4861052;29;20041;-70
2023/09/06 10:28:23;;;;;;;3.13;1.58;;;26.90;93.60;;;;;;4861029;29;20028;-70
2023/09/06 10:30:57;;;;;;;3.92;1.67;;;27.10;94.00;;;;;;4860863;29;20450;-71
2023/09/06 10:33:35;;;;;;;3.13;1.50;;;27.20;92.80;;;;;;4860931;29;20033;-71
2023/09/06 10:36:16;;;;;;;3.08;1.63;;;27.30;93.40;;;;;;4877326;29;20052;-71
2023/09/06 10:38:51;;;;;;;4.53;2.03;;;27.30;92.90;;;;;;4877180;29;20058;-71
2023/09/06 10:41:18;;;;;;;3.13;1.75;;;27.20;93.50;;;;;;4876993;29;20045;-72
2023/09/06 10:44:00;;;;;;;2.42;1.60;;;27.60;93.40;;;;;;4877367;29;20033;-70
2023/09/06 10:46:36;;;;;;;5.35;1.45;;;27.90;93.10;;;;;;4877249;29;20421;-70
2023/09/06 10:49:23;;;;;;;4.07;1.80;;;28.20;93.10;;;;;;4860638;29;20037;-70
2023/09/06 10:51:57;;;;;;;4.25;1.60;;;28.30;92.60;;;;;;4862771;29;20029;-70
2023/09/06 10:54:44;;;;;;;4.55;1.63;;;27.90;92.60;;;;;;4880825;29;20123;-71
2023/09/06 10:57:14;;;;;;;3.70;1.60;;;27.60;93.00;;;;;;4864015;29;20033;-70
2023/09/06 10:59:44;;;;;;;;;;;27.70;92.40;;;;;;4864069;29;20025;-70
2023/09/06 11:02:19;;;;;;;2.83;1.65;;;27.90;93.30;;;;;;4863664;29;19970;-72
2023/09/06 11:04:45;;;;;;;3.38;1.63;;;27.90;92.50;;;;;;4880714;29;20037;-71
2023/09/06 11:07:11;;;;;;;4.15;1.58;;;28.20;93.00;;;;;;4863631;29;20037;-71
2023/09/06 11:09:50;;;;;;;3.25;1.23;;;28.40;92.90;;;;;;4880273;29;20049;-71
2023/09/06 11:12:17;;;;;;;2.78;1.40;;;28.40;91.10;;;;;;4864036;29;20039;-70
2023/09/06 11:14:47;;;;;;;2.63;1.60;;;29.00;91.20;;;;;;4863615;29;20037;-71
2023/09/06 11:17:20;;;;;;;;;;;28.70;90.80;;;;;;4864707;29;20493;-70
2023/09/06 11:19:46;;;;;;;5.10;1.45;;;29.10;91.10;;;;;;4863541;29;19940;-70
2023/09/06 11:22:12;;;;;;;3.38;1.50;;;29.00;91.50;;;;;;4880148;29;20041;-70
2023/09/06 11:24:38;;;;;;;3.28;1.42;;;29.20;91.30;;;;;;4880374;29;20033;-70
2023/09/06 11:27:33;;;;;;;2.38;1.23;;;29.20;90.80;;;;;;4863390;29;20105;-69
2023/09/06 11:30:10;;;;;;;2.72;1.35;;;29.50;90.50;;;;;;4864916;29;20037;-70
2023/09/06 11:32:39;;;;;;;3.13;1.48;;;29.90;90.30;;;;;;4863977;29;20037;-71
2023/09/06 11:35:08;;;;;;;3.28;1.63;;;29.60;90.00;;;;;;4863240;29;20057;-69
2023/09/06 11:37:42;;;;;;;3.50;1.70;;;29.10;91.60;;;;;;4863316;29;20466;-70
2023/09/06 11:40:15;;;;;;;3.05;1.83;;;29.90;90.60;;;;;;4863812;29;20060;-70
2023/09/06 11:42:45;;;;;;;18.48;2.40;;;29.40;90.30;;;;;;4863956;29;20466;-70
2023/09/06 11:45:14;;;;;;;2.42;1.27;;;30.00;90.20;;;;;;4863455;29;20033;-70
2023/09/06 11:47:42;;;;;;;3.40;1.90;;;30.00;89.20;;;;;;4879902;29;20045;-70
2023/09/06 11:50:11;;;;;;;1.95;1.20;;;30.10;90.60;;;;;;4862621;29;20470;-70
2023/09/06 11:52:39;;;;;;;2.23;1.53;;;30.00;88.80;;;;;;4879494;29;20061;-70
2023/09/06 11:55:09;;;;;;;2.22;1.38;;;29.70;89.70;;;;;;4879456;29;20033;-70
2023/09/06 11:57:39;;;;;;;3.53;1.27;;;30.00;91.00;;;;;;4879573;29;20542;-70
2023/09/06 12:00:25;;;;;;;2.85;1.85;;;30.10;89.30;;;;;;4862763;29;20080;-70
2023/09/06 12:02:51;;;;;;;1.60;1.00;;;30.60;87.70;;;;;;4864115;29;20029;-70
2023/09/06 12:05:23;;;;;;;1.95;1.20;;;30.20;89.10;;;;;;4879465;29;20041;-70
2023/09/06 12:07:50;;;;;;;7.35;1.35;;;30.00;89.40;;;;;;4862553;29;20124;-70
2023/09/06 12:10:23;;;;;;;3.88;1.27;;;30.60;89.70;;;;;;4862385;29;20501;-70
2023/09/06 12:12:51;;;;;;;2.72;1.25;;;30.00;88.20;;;;;;4863258;29;20037;-71
2023/09/06 12:15:19;;;;;;;6.00;1.63;;;30.80;87.20;;;;;;4879610;29;20040;-71
2023/09/06 12:17:50;;;;;;;4.20;2.05;;;31.50;85.70;;;;;;4863031;29;20506;-71
2023/09/06 12:20:23;;;;;;;4.82;1.33;;;32.00;84.80;;;;;;4862510;29;20140;-71
2023/09/06 12:22:53;;;;;;;3.90;1.75;;;31.80;81.10;;;;;;4878995;29;20580;-71
2023/09/06 12:25:20;;;;;;;2.72;1.45;;;31.70;81.60;;;;;;4862340;29;20051;-70
2023/09/06 12:27:47;;;;;;;4.38;1.50;;;31.70;85.00;;;;;;4862215;29;20057;-71
2023/09/06 12:30:18;;;;;;;1.88;0.98;;;32.40;84.70;;;;;;4862131;29;20029;-71
2023/09/06 12:32:45;;;;;;;1.35;1.08;;;33.70;80.40;;;;;;4862853;29;20048;-70
2023/09/06 12:35:11;;;;;;;4.60;1.30;;;33.50;76.90;;;;;;4862102;29;20037;-70
2023/09/06 12:37:38;;;;;;;2.92;1.35;;;33.00;78.90;;;;;;4879092;29;20085;-70
2023/09/06 12:40:15;;;;;;;2.45;1.20;;;33.70;80.90;;;;;;4861995;29;20053;-70
2023/09/06 12:42:44;;;;;;;3.35;0.80;;;33.50;78.20;;;;;;4863263;29;20128;-69
2023/09/06 12:45:36;;;;;;;2.22;1.23;;;32.50;75.60;;;;;;4887204;29;20107;-70
2023/09/06 12:48:05;;;;;;;2.35;1.02;;;32.10;79.20;;;;;;4894743;29;20385;-71
2023/09/06 12:50:31;;;;;;;2.60;1.30;;;34.40;74.70;;;;;;4897107;29;20033;-71
2023/09/06 12:52:57;;;;;;;2.53;1.17;;;35.40;71.60;;;;;;4897407;29;20040;-71
2023/09/06 12:55:22;;;;;;;2.60;1.20;;;37.20;69.60;;;;;;4897436;29;20028;-72
2023/09/06 12:57:50;;;;;;;1.23;0.75;;;35.90;66.00;;;;;;4897235;29;20037;-70